URSSUSCM

Guest
Details From URSS - Sochi
To USCM - Magnitogorsk
Flight Number -
Tags Generated
Created
Modified
Stats Distance 953 nm / 1,766 km
Max Altitude 0 ft / 0 m
Waypoints 4
Social Downloads 0
Likes 0
Share VATSIM

Download

Looking for another format? Having issues loading an existing format? Contact us
Advertisement - Login to hide

Notes

Generated

Route

URSS SA UMOTA USCM

ID Type Via Altitude Latitude Longitude Leg Dist Tot Dist Heading (true) Name
O URSS APT - 0 ft / 0 m 43.43576˚ 39.94578˚ - 0 nm - Sochi
SA NDB - 0 ft / 0 m 46.38000˚ 44.27000˚ 255 nm 255 nm 45° / 48° ELISTA NDB
UMOTA FIX - 0 ft / 0 m 53.15000˚ 58.21667˚ 674 nm 929 nm 48° / 59° -
O USCM APT - 0 ft / 0 m 53.37912˚ 58.74883˚ 23 nm 953 nm 54° / 54° -

Altitude Profile

Advertisement - Login to hide

Weather


0- 5 10 15 20 25 30 35+ Temperature / ° C

Clouds and Precipitation
Forecast for 2018-05-24 06:00 UTC. Updated 3 hours ago

Ground ~20,000 ft ~40,000 ft Winds

URSS

Details ICAO URSS (AER)
Name Sochi
Region Russia
Timezone Europe/Moscow (UTC+3.0)
Stats Elevation 89 ft / 27 m (AMSL)
Location 43.444749° 39.947302°
Runways 2
Magnetic Variation 7.002° E

METAR

URSS 240800Z 19002MPS 9999 FEW030 OVC110 24/18 Q1014 R02/090070 R06/090070 NOSIG RMK R06/24001MPS MT OBSC QFE759

Decode

TAF

TAF URSS 240456Z 2406/2506 05006MPS 9999 SCT011 SCT030CB BKN100 BECMG 2406/2407 22005G10MPS TEMPO 2406/2409 -TSRA BECMG 2409/2410 27005G10MPS TEMPO 2409/2415 VRB06G11MPS -TSRA BECMG 2415/2416 05006MPS TEMPO 2415/2503 VRB06G11MPS 3100 -TSRA BKN006 BKN020CB

Decode

Departure Runways

ID Width Length Bearing (true) Bearing (mag) Surface Threshold Offset Overrun Length
02 161 ft / 49 m 7,267 ft / 2,215 m 28.98° 21.98° Concrete 0 ft / 0 m 0 ft / 0 m
06 164 ft / 50 m 9,531 ft / 2,905 m 64.90° 57.90° Concrete 262 ft / 80 m 0 ft / 0 m
20 161 ft / 49 m 7,267 ft / 2,215 m 208.99° 201.99° Concrete 0 ft / 0 m 0 ft / 0 m
24 164 ft / 50 m 9,531 ft / 2,905 m 244.92° 237.92° Concrete 0 ft / 0 m 0 ft / 0 m

USCM

Details ICAO USCM (MQF)
Name MAGNITOGORSK
Region Russia
Timezone Asia/Yekaterinburg (UTC+5.0)
Stats Elevation 1,431 ft / 436 m (AMSL)
Location 53.393132° 58.755661°
Runways 1
Magnetic Variation 12.557° E

METAR

USCM 240800Z 27009MPS 9999 SCT040 26/06 Q1020 R18/090065 TEMPO 28015MPS RMK QFE727

Decode

TAF

Not found

Destination Runways

ID Width Length Bearing (true) Bearing (mag) Surface Threshold Offset Overrun Length
01 148 ft / 45 m 10,648 ft / 3,246 m 16.20° 3.64° Concrete 0 ft / 0 m 140 ft / 43 m
19 148 ft / 45 m 10,648 ft / 3,246 m 196.21° 183.65° Concrete 0 ft / 0 m 140 ft / 43 m